Time;durP1;ratioP1;P1;durP2;ratioP2;P2;SDS_P1;SDS_P2;PMS_P1;PMS_P2;Temp;Humidity;BMP_temperature;BMP_pressure;BME280_temperature;BME280_humidity;BME280_pressure;Samples;Min_cycle;Max_cycle;Signal;HPM_P1;HPM_P2
2023/09/04 00:01:36;;;;;;;11.13;9.18;;;;;;;;;;5024688;28;20191;-72
2023/09/04 00:04:03;;;;;;;10.40;9.30;;;;;;;;;;5020235;28;20214;-72
2023/09/04 00:06:29;;;;;;;11.93;9.45;;;;;;;;;;5022846;28;20194;-72
2023/09/04 00:08:57;;;;;;;11.57;9.98;;;;;;;;;;5042157;28;20192;-73
2023/09/04 00:11:26;;;;;;;10.50;9.40;;;;;;;;;;5027504;28;20653;-72
2023/09/04 00:13:51;;;;;;;13.52;10.10;;;;;;;;;;5027761;28;20194;-72
2023/09/04 00:16:17;;;;;;;12.23;10.65;;;;;;;;;;5018284;28;20536;-72
2023/09/04 00:18:42;;;;;;;13.52;10.13;;;;;;;;;;5030169;28;20215;-72
2023/09/04 00:21:07;;;;;;;11.13;9.88;;;;;;;;;;5014466;28;20193;-72
2023/09/04 00:23:33;;;;;;;10.82;9.43;;;;;;;;;;5012024;28;20218;-72
2023/09/04 00:25:58;;;;;;;11.18;9.25;;;;;;;;;;5020535;28;20256;-72
2023/09/04 00:28:24;;;;;;;9.77;8.65;;;;;;;;;;5021391;28;20546;-72
2023/09/04 00:30:49;;;;;;;11.15;8.52;;;;;;;;;;5026732;28;20309;-72
2023/09/04 00:33:15;;;;;;;9.50;8.35;;;;;;;;;;5015889;28;20193;-73
2023/09/04 00:35:40;;;;;;;14.57;8.73;;;;;;;;;;5021776;28;20222;-74
2023/09/04 00:38:05;;;;;;;10.77;8.10;;;;;;;;;;5026735;28;20201;-73
2023/09/04 00:40:31;;;;;;;11.38;8.80;;;;;;;;;;5011351;28;20202;-72
2023/09/04 00:42:56;;;;;;;10.18;8.68;;;;;;;;;;5036893;28;20417;-72
2023/09/04 00:45:22;;;;;;;13.43;9.90;;;;;;;;;;5019582;28;20194;-72
2023/09/04 00:47:47;;;;;;;9.38;8.40;;;;;;;;;;5020825;28;20209;-72
2023/09/04 00:50:21;;;;;;;9.77;8.68;;;;;;;;;;5024300;28;20295;-72
2023/09/04 00:52:48;;;;;;;10.95;8.45;;;;;;;;;;5015002;28;20196;-73
2023/09/04 00:55:13;;;;;;;13.10;8.57;;;;;;;;;;5035119;28;20182;-72
2023/09/04 00:57:41;;;;;;;11.45;8.48;;;;;;;;;;5019973;28;20256;-72
2023/09/04 01:00:13;;;;;;;9.63;8.63;;;;;;;;;;5019363;28;20525;-72
2023/09/04 01:02:40;;;;;;;11.40;8.40;;;;;;;;;;5013222;28;20642;-72
2023/09/04 01:05:06;;;;;;;13.15;9.77;;;;;;;;;;5014592;28;20201;-72
2023/09/04 01:07:32;;;;;;;8.95;7.95;;;;;;;;;;5030671;28;20209;-72
2023/09/04 01:09:58;;;;;;;10.25;7.85;;;;;;;;;;5024549;28;20217;-71
2023/09/04 01:12:36;;;;;;;9.98;7.57;;;;;;;;;;5018599;28;20182;-72
2023/09/04 01:15:02;;;;;;;10.05;7.63;;;;;;;;;;5018513;28;20314;-71
2023/09/04 01:17:29;;;;;;;11.20;8.57;;;;;;;;;;5019054;28;20618;-71
2023/09/04 01:19:54;;;;;;;10.18;9.05;;;;;;;;;;5028294;28;20190;-71
2023/09/04 01:22:20;;;;;;;13.10;8.85;;;;;;;;;;5019377;28;20417;-71
2023/09/04 01:24:46;;;;;;;10.10;9.02;;;;;;;;;;5027309;28;20206;-72
2023/09/04 01:27:30;;;;;;;16.17;9.30;;;;;;;;;;5019411;28;20201;-72
2023/09/04 01:30:09;;;;;;;13.00;9.45;;;;;;;;;;5015509;28;20276;-72
2023/09/04 01:32:48;;;;;;;11.65;8.90;;;;;;;;;;5013528;28;20193;-71
2023/09/04 01:35:15;;;;;;;10.38;9.27;;;;;;;;;;5028168;28;20273;-71
2023/09/04 01:37:42;;;;;;;14.02;11.27;;;;;;;;;;5027289;28;20674;-71
2023/09/04 01:40:08;;;;;;;12.63;10.35;;;;;;;;;;5029452;28;20640;-71
2023/09/04 01:42:34;;;;;;;13.40;10.02;;;;;;;;;;5032733;28;20229;-72
2023/09/04 01:45:02;;;;;;;10.93;9.82;;;;;;;;;;5030206;28;20238;-71
2023/09/04 01:47:30;;;;;;;13.75;9.40;;;;;;;;;;5032606;28;20182;-72
2023/09/04 01:49:55;;;;;;;10.65;9.55;;;;;;;;;;5028536;28;20182;-71
2023/09/04 01:52:20;;;;;;;10.60;8.95;;;;;;;;;;5037054;28;20253;-71
2023/09/04 01:54:46;;;;;;;11.93;10.13;;;;;;;;;;5018091;28;20183;-71
2023/09/04 01:57:11;;;;;;;16.88;10.75;;;;;;;;;;5015947;28;20590;-71
2023/09/04 01:59:36;;;;;;;12.07;10.10;;;;;;;;;;5024031;28;20194;-71
2023/09/04 02:02:02;;;;;;;14.20;10.25;;;;;;;;;;5028866;28;20623;-72
2023/09/04 02:04:31;;;;;;;16.95;11.75;;;;;;;;;;5025549;28;20320;-71
2023/09/04 02:06:57;;;;;;;11.68;10.32;;;;;;;;;;5030488;28;20198;-71
2023/09/04 02:09:22;;;;;;;12.73;10.50;;;;;;;;;;5026542;28;20186;-71
2023/09/04 02:11:47;;;;;;;11.68;10.43;;;;;;;;;;5031581;28;20264;-72
2023/09/04 02:14:13;;;;;;;12.13;10.13;;;;;;;;;;5018903;28;20549;-71
2023/09/04 02:16:38;;;;;;;11.15;9.98;;;;;;;;;;5027234;28;20209;-71
2023/09/04 02:19:04;;;;;;;13.38;10.27;;;;;;;;;;5025884;28;20190;-71
2023/09/04 02:21:29;;;;;;;12.88;10.00;;;;;;;;;;5024164;28;20202;-71
2023/09/04 02:23:56;;;;;;;14.18;10.63;;;;;;;;;;5022400;28;20229;-71
2023/09/04 02:26:21;;;;;;;12.35;10.60;;;;;;;;;;5023959;28;20194;-72
2023/09/04 02:28:46;;;;;;;13.57;9.90;;;;;;;;;;5026068;28;20328;-72
2023/09/04 02:31:12;;;;;;;14.98;9.63;;;;;;;;;;5025216;28;20297;-71
2023/09/04 02:33:37;;;;;;;13.48;10.15;;;;;;;;;;5028097;28;20213;-72
2023/09/04 02:36:03;;;;;;;13.10;9.52;;;;;;;;;;5028550;28;20200;-72
2023/09/04 02:38:29;;;;;;;12.18;9.38;;;;;;;;;;5026075;28;20198;-72
2023/09/04 02:40:54;;;;;;;10.40;9.30;;;;;;;;;;5028077;28;20186;-72
2023/09/04 02:43:19;;;;;;;11.38;8.55;;;;;;;;;;5025068;28;20570;-72
2023/09/04 02:45:47;;;;;;;10.32;8.30;;;;;;;;;;5031666;28;20190;-72
2023/09/04 02:48:12;;;;;;;10.80;8.18;;;;;;;;;;5032618;28;20186;-72
2023/09/04 02:50:39;;;;;;;11.23;8.77;;;;;;;;;;5028779;28;20289;-72
2023/09/04 02:53:05;;;;;;;9.52;8.13;;;;;;;;;;5030825;28;20293;-72
2023/09/04 02:55:31;;;;;;;11.73;8.95;;;;;;;;;;5016315;28;20187;-72
2023/09/04 02:57:57;;;;;;;10.07;8.13;;;;;;;;;;5030963;28;20212;-72
2023/09/04 03:00:22;;;;;;;11.88;10.43;;;;;;;;;;5017214;28;20198;-72
2023/09/04 03:02:47;;;;;;;14.82;11.35;;;;;;;;;;5026971;28;20293;-73
2023/09/04 03:05:13;;;;;;;14.57;10.48;;;;;;;;;;5027883;28;20201;-72
2023/09/04 03:07:38;;;;;;;15.35;10.52;;;;;;;;;;5020955;28;20597;-72
2023/09/04 03:10:03;;;;;;;12.40;10.02;;;;;;;;;;5021651;28;21169;-72
2023/09/04 03:12:30;;;;;;;14.07;9.73;;;;;;;;;;5019842;28;20199;-72
2023/09/04 03:15:00;;;;;;;16.42;9.50;;;;;;;;;;5025064;28;20210;-72
2023/09/04 03:17:27;;;;;;;11.35;8.48;;;;;;;;;;5027090;28;20214;-71
2023/09/04 03:19:54;;;;;;;10.13;8.98;;;;;;;;;;4999522;28;20218;-71
2023/09/04 03:22:23;;;;;;;12.13;9.65;;;;;;;;;;5027023;28;20198;-71
2023/09/04 03:24:49;;;;;;;10.93;9.50;;;;;;;;;;5028032;28;20634;-71
2023/09/04 03:27:15;;;;;;;11.98;9.18;;;;;;;;;;5028453;28;20272;-72
2023/09/04 03:29:40;;;;;;;13.50;10.40;;;;;;;;;;5030428;28;20285;-72
2023/09/04 03:32:06;;;;;;;12.55;9.30;;;;;;;;;;5027885;28;20665;-71
2023/09/04 03:34:32;;;;;;;11.70;10.48;;;;;;;;;;5028912;28;20697;-72
2023/09/04 03:36:57;;;;;;;15.35;9.95;;;;;;;;;;5030687;28;20277;-71
2023/09/04 03:39:24;;;;;;;13.98;10.07;;;;;;;;;;5020384;28;20537;-71
2023/09/04 03:41:50;;;;;;;14.20;10.00;;;;;;;;;;5030538;28;20228;-71
2023/09/04 03:44:15;;;;;;;10.80;8.93;;;;;;;;;;5027595;28;20629;-71
2023/09/04 03:46:40;;;;;;;9.68;8.55;;;;;;;;;;5027628;28;20544;-71
2023/09/04 03:49:06;;;;;;;11.32;9.07;;;;;;;;;;5039047;28;20206;-71
2023/09/04 03:51:32;;;;;;;9.77;7.88;;;;;;;;;;5042764;28;20190;-71
2023/09/04 03:54:01;;;;;;;12.13;8.02;;;;;;;;;;5029258;28;20193;-72
2023/09/04 03:56:27;;;;;;;9.15;7.55;;;;;;;;;;5027583;28;20186;-71
2023/09/04 03:58:52;;;;;;;9.93;7.90;;;;;;;;;;5027740;28;20194;-71
2023/09/04 04:01:18;;;;;;;9.07;8.18;;;;;;;;;;5027943;28;20687;-71
2023/09/04 04:03:43;;;;;;;11.05;7.55;;;;;;;;;;5027076;28;20304;-72
2023/09/04 04:06:13;;;;;;;9.40;7.45;;;;;;;;;;5028260;28;20202;-71
2023/09/04 04:08:38;;;;;;;10.00;7.63;;;;;;;;;;5025209;28;20237;-71
2023/09/04 04:11:04;;;;;;;8.18;6.18;;;;;;;;;;5027395;28;20190;-71
2023/09/04 04:13:29;;;;;;;7.70;6.82;;;;;;;;;;5015784;28;20229;-72
2023/09/04 04:16:02;;;;;;;11.52;7.70;;;;;;;;;;5019910;28;20563;-72
2023/09/04 04:18:29;;;;;;;10.55;8.63;;;;;;;;;;5022730;28;20214;-71
2023/09/04 04:20:54;;;;;;;12.77;8.70;;;;;;;;;;5026988;28;20213;-71
2023/09/04 04:23:20;;;;;;;11.57;9.00;;;;;;;;;;5025618;28;20206;-71
2023/09/04 04:25:48;;;;;;;12.00;10.10;;;;;;;;;;5026735;28;20197;-71
2023/09/04 04:28:13;;;;;;;14.02;10.45;;;;;;;;;;5027039;28;20186;-71
2023/09/04 04:30:38;;;;;;;13.70;11.35;;;;;;;;;;5009947;28;20457;-73
2023/09/04 04:33:04;;;;;;;13.68;9.75;;;;;;;;;;5026312;28;20193;-71
2023/09/04 04:35:30;;;;;;;14.35;10.40;;;;;;;;;;5023459;28;20209;-71
2023/09/04 04:37:56;;;;;;;12.40;10.75;;;;;;;;;;5017519;28;20273;-72
2023/09/04 04:40:23;;;;;;;15.13;10.80;;;;;;;;;;5018104;28;20215;-72
2023/09/04 04:42:48;;;;;;;11.95;10.05;;;;;;;;;;5020397;28;20225;-72
2023/09/04 04:45:13;;;;;;;15.75;11.05;;;;;;;;;;5011665;28;20194;-73
2023/09/04 04:47:39;;;;;;;12.55;10.35;;;;;;;;;;5013836;28;20292;-72
2023/09/04 04:50:05;;;;;;;15.00;10.88;;;;;;;;;;5019183;28;20196;-72
2023/09/04 04:52:30;;;;;;;12.55;10.43;;;;;;;;;;5022911;28;20206;-72
2023/09/04 04:54:56;;;;;;;12.38;9.38;;;;;;;;;;5021674;28;20191;-72
2023/09/04 04:57:21;;;;;;;14.60;10.57;;;;;;;;;;5016678;28;20182;-72
2023/09/04 04:59:46;;;;;;;12.07;9.95;;;;;;;;;;5030064;28;20236;-72
2023/09/04 05:02:13;;;;;;;13.07;9.27;;;;;;;;;;5027511;28;20256;-73
2023/09/04 05:04:44;;;;;;;11.77;9.27;;;;;;;;;;5021317;28;20289;-72
2023/09/04 05:07:10;;;;;;;17.02;11.38;;;;;;;;;;5026708;28;20688;-73
2023/09/04 05:09:37;;;;;;;14.30;10.57;;;;;;;;;;5028195;28;20190;-72
2023/09/04 05:12:03;;;;;;;9.90;7.70;;;;;;;;;;5030013;28;20186;-72
2023/09/04 05:14:29;;;;;;;7.45;6.47;;;;;;;;;;5023881;28;20499;-72
2023/09/04 05:16:55;;;;;;;9.57;7.60;;;;;;;;;;5022714;28;20253;-72
2023/09/04 05:19:21;;;;;;;8.20;6.45;;;;;;;;;;5022955;28;20187;-72
2023/09/04 05:21:46;;;;;;;9.43;7.85;;;;;;;;;;5027102;28;20300;-72
2023/09/04 05:24:11;;;;;;;9.10;7.82;;;;;;;;;;5018524;28;20244;-72
2023/09/04 05:26:37;;;;;;;11.30;8.73;;;;;;;;;;5014502;28;20217;-72
2023/09/04 05:29:02;;;;;;;14.35;8.90;;;;;;;;;;5019684;28;20194;-71
2023/09/04 05:31:27;;;;;;;11.55;9.65;;;;;;;;;;5018178;28;20600;-71
2023/09/04 05:33:53;;;;;;;13.07;10.10;;;;;;;;;;5023691;28;20692;-72
2023/09/04 05:36:18;;;;;;;12.10;10.30;;;;;;;;;;5022535;28;20209;-71
2023/09/04 05:38:43;;;;;;;13.98;10.73;;;;;;;;;;5015241;28;20832;-71
2023/09/04 05:41:09;;;;;;;16.40;11.70;;;;;;;;;;5024702;28;20186;-71
2023/09/04 05:43:34;;;;;;;12.73;11.00;;;;;;;;;;5028740;28;20237;-71
2023/09/04 05:46:00;;;;;;;13.57;10.82;;;;;;;;;;5018018;28;20227;-71
2023/09/04 05:48:25;;;;;;;13.80;10.43;;;;;;;;;;5018958;28;20204;-72
2023/09/04 05:50:51;;;;;;;13.73;10.73;;;;;;;;;;5024381;28;20599;-71
2023/09/04 05:53:18;;;;;;;11.75;10.43;;;;;;;;;;5027464;28;20538;-71
2023/09/04 05:55:43;;;;;;;18.83;12.07;;;;;;;;;;5027462;28;20198;-72
2023/09/04 05:58:11;;;;;;;15.77;11.32;;;;;;;;;;5019904;28;20209;-71
2023/09/04 06:00:36;;;;;;;15.95;12.27;;;;;;;;;;5021549;28;20659;-71
2023/09/04 06:03:02;;;;;;;14.63;12.63;;;;;;;;;;5023859;28;20667;-71
2023/09/04 06:05:27;;;;;;;17.48;12.63;;;;;;;;;;5028243;28;20217;-71
2023/09/04 06:07:53;;;;;;;18.83;12.77;;;;;;;;;;5024405;28;20317;-71
2023/09/04 06:10:18;;;;;;;19.65;15.13;;;;;;;;;;5030654;28;20197;-72
2023/09/04 06:13:03;;;;;;;21.23;16.45;;;;;;;;;;4991746;28;10001066;-71
2023/09/04 06:15:28;;;;;;;22.40;17.17;;;;;;;;;;5017836;28;20425;-72
2023/09/04 06:17:53;;;;;;;20.67;17.20;;;;;;;;;;5020828;28;20233;-72
2023/09/04 06:20:20;;;;;;;23.58;18.02;;;;;;;;;;5023310;28;20210;-72
2023/09/04 06:22:45;;;;;;;23.02;19.15;;;;;;;;;;5029016;28;20217;-72
2023/09/04 06:25:11;;;;;;;29.30;20.05;;;;;;;;;;5019128;28;20194;-72
2023/09/04 06:27:36;;;;;;;24.48;19.60;;;;;;;;;;5017897;28;20549;-72
2023/09/04 06:30:03;;;;;;;27.05;20.75;;;;;;;;;;5020592;28;20202;-72
2023/09/04 06:32:29;;;;;;;26.02;20.70;;;;;;;;;;5026633;28;20283;-71
2023/09/04 06:34:54;;;;;;;26.95;22.85;;;;;;;;;;5024752;28;20190;-71
2023/09/04 06:37:19;;;;;;;29.30;22.33;;;;;;;;;;5019979;28;20208;-71
2023/09/04 06:39:45;;;;;;;28.00;22.15;;;;;;;;;;5024350;28;20276;-70
2023/09/04 06:42:10;;;;;;;29.38;23.25;;;;;;;;;;5019515;28;20198;-72
2023/09/04 06:44:35;;;;;;;30.25;23.10;;;;;;;;;;5015217;28;20317;-71
2023/09/04 06:47:01;;;;;;;30.52;22.30;;;;;;;;;;5026753;28;20193;-71
2023/09/04 06:49:26;;;;;;;27.55;22.60;;;;;;;;;;5018538;28;20530;-71
2023/09/04 06:51:52;;;;;;;26.17;21.45;;;;;;;;;;5020915;28;20277;-71
2023/09/04 06:54:17;;;;;;;26.88;21.58;;;;;;;;;;5021131;28;20193;-71
2023/09/04 06:56:43;;;;;;;27.63;22.73;;;;;;;;;;5027943;28;20287;-72
2023/09/04 06:59:08;;;;;;;26.75;22.45;;;;;;;;;;5024288;28;20202;-72
2023/09/04 07:01:34;;;;;;;26.02;22.23;;;;;;;;;;5020773;28;20568;-71
2023/09/04 07:03:59;;;;;;;27.75;21.80;;;;;;;;;;5024207;28;20222;-71
2023/09/04 07:06:24;;;;;;;26.10;22.02;;;;;;;;;;5026124;28;20269;-71
2023/09/04 07:08:50;;;;;;;23.90;21.05;;;;;;;;;;5006996;28;20182;-71
2023/09/04 07:11:16;;;;;;;26.10;22.55;;;;;;;;;;5021602;28;20201;-71
2023/09/04 07:13:41;;;;;;;26.73;21.35;;;;;;;;;;5020398;28;20607;-71
2023/09/04 07:16:07;;;;;;;29.65;21.90;;;;;;;;;;5016822;28;20617;-71
2023/09/04 07:18:32;;;;;;;24.23;20.02;;;;;;;;;;5015916;28;20210;-71
2023/09/04 07:20:57;;;;;;;21.73;19.42;;;;;;;;;;5018006;28;20183;-71
2023/09/04 07:23:23;;;;;;;19.30;17.30;;;;;;;;;;5019655;28;20326;-72
2023/09/04 07:25:52;;;;;;;23.13;17.65;;;;;;;;;;5010018;28;20198;-71
2023/09/04 07:28:18;;;;;;;18.98;16.90;;;;;;;;;;5004950;28;20281;-71
2023/09/04 07:30:44;;;;;;;21.25;15.98;;;;;;;;;;5010637;28;20193;-71
2023/09/04 07:33:09;;;;;;;18.20;15.82;;;;;;;;;;5020726;28;20191;-72
2023/09/04 07:35:35;;;;;;;15.40;13.80;;;;;;;;;;5017689;28;20588;-72
2023/09/04 07:38:00;;;;;;;19.73;15.82;;;;;;;;;;5022378;28;20225;-72
2023/09/04 07:40:25;;;;;;;15.85;13.18;;;;;;;;;;5026556;28;20508;-72
2023/09/04 07:42:51;;;;;;;14.18;12.73;;;;;;;;;;5023456;28;20242;-71
2023/09/04 07:45:17;;;;;;;14.60;12.43;;;;;;;;;;5023543;28;20193;-71
2023/09/04 07:47:42;;;;;;;15.18;12.55;;;;;;;;;;5029177;28;20205;-71
2023/09/04 07:50:08;;;;;;;14.75;11.88;;;;;;;;;;5010979;28;20194;-71
2023/09/04 07:52:33;;;;;;;12.95;11.38;;;;;;;;;;5035231;28;20205;-71
2023/09/04 07:54:58;;;;;;;14.15;12.38;;;;;;;;;;5011722;28;20222;-71
2023/09/04 07:57:24;;;;;;;13.10;11.32;;;;;;;;;;5024144;28;20194;-71
2023/09/04 07:59:49;;;;;;;14.45;10.38;;;;;;;;;;5026889;28;20244;-71
2023/09/04 08:02:16;;;;;;;11.75;10.52;;;;;;;;;;5025958;28;20232;-72
2023/09/04 08:04:41;;;;;;;11.75;10.65;;;;;;;;;;5014885;28;20233;-72
2023/09/04 08:07:06;;;;;;;12.68;10.75;;;;;;;;;;5021938;28;20221;-72
2023/09/04 08:09:32;;;;;;;11.55;10.35;;;;;;;;;;5022206;28;20198;-71
2023/09/04 08:11:58;;;;;;;13.27;10.98;;;;;;;;;;5023726;28;20210;-73
2023/09/04 08:14:23;;;;;;;12.25;10.38;;;;;;;;;;5020772;28;20241;-73
2023/09/04 08:16:48;;;;;;;13.77;10.38;;;;;;;;;;5020126;28;20186;-72
2023/09/04 08:19:14;;;;;;;10.70;9.57;;;;;;;;;;5018717;28;20345;-73
2023/09/04 08:21:39;;;;;;;11.23;9.55;;;;;;;;;;5023417;28;20193;-73
2023/09/04 08:24:05;;;;;;;12.82;9.88;;;;;;;;;;5031780;28;20228;-73
2023/09/04 08:26:30;;;;;;;10.75;9.65;;;;;;;;;;5032012;28;20198;-73
2023/09/04 08:28:55;;;;;;;10.05;9.05;;;;;;;;;;5026228;28;20244;-73
2023/09/04 08:31:21;;;;;;;10.18;9.02;;;;;;;;;;5019554;28;20521;-72
2023/09/04 08:33:46;;;;;;;12.65;9.75;;;;;;;;;;5022161;28;20194;-73
2023/09/04 08:36:13;;;;;;;9.57;8.27;;;;;;;;;;5021626;28;20734;-73
2023/09/04 08:38:38;;;;;;;13.98;8.90;;;;;;;;;;5021373;28;20201;-73
2023/09/04 08:41:09;;;;;;;9.93;8.15;;;;;;;;;;5008865;28;20538;-72
2023/09/04 08:43:36;;;;;;;9.57;8.00;;;;;;;;;;5023614;28;20237;-73
2023/09/04 08:46:02;;;;;;;10.23;8.70;;;;;;;;;;5026245;28;20182;-73
2023/09/04 08:48:30;;;;;;;8.85;7.85;;;;;;;;;;5031936;28;20186;-73
2023/09/04 08:50:56;;;;;;;11.38;7.97;;;;;;;;;;5012659;28;20189;-74
2023/09/04 08:53:22;;;;;;;8.60;7.75;;;;;;;;;;5019665;28;20174;-73
2023/09/04 08:55:48;;;;;;;8.43;7.47;;;;;;;;;;5025483;28;20247;-73
2023/09/04 08:58:14;;;;;;;8.25;6.95;;;;;;;;;;5019093;28;20183;-73
2023/09/04 09:00:40;;;;;;;7.68;6.47;;;;;;;;;;5027381;28;20358;-74
2023/09/04 09:03:06;;;;;;;10.75;7.25;;;;;;;;;;5022728;28;20292;-73
2023/09/04 09:05:33;;;;;;;7.82;6.82;;;;;;;;;;5023779;28;20737;-73
2023/09/04 09:08:00;;;;;;;8.18;6.75;;;;;;;;;;5023429;28;20189;-73
2023/09/04 09:10:25;;;;;;;9.27;6.07;;;;;;;;;;5013319;28;20327;-73
2023/09/04 09:12:51;;;;;;;9.50;6.60;;;;;;;;;;5015741;28;20382;-72
2023/09/04 09:15:17;;;;;;;7.00;5.95;;;;;;;;;;5014843;28;20182;-71
2023/09/04 09:17:53;;;;;;;5.20;4.43;;;;;;;;;;5021494;28;20248;-72
2023/09/04 09:20:31;;;;;;;6.85;4.32;;;;;;;;;;4319086;28;10000848;-72
2023/09/04 09:22:58;;;;;;;4.13;3.58;;;;;;;;;;5010846;28;20243;-73
2023/09/04 09:25:23;;;;;;;4.78;3.78;;;;;;;;;;5021236;28;20195;-73
2023/09/04 09:27:49;;;;;;;8.00;4.03;;;;;;;;;;5019461;28;20534;-73
2023/09/04 09:30:14;;;;;;;4.90;3.90;;;;;;;;;;5005669;28;20198;-73
2023/09/04 09:32:42;;;;;;;4.47;4.07;;;;;;;;;;5006749;28;20234;-73
2023/09/04 09:35:09;;;;;;;4.60;3.03;;;;;;;;;;5018853;28;20185;-73
2023/09/04 09:37:34;;;;;;;5.63;3.17;;;;;;;;;;5016198;28;20382;-73
2023/09/04 09:40:00;;;;;;;3.35;2.95;;;;;;;;;;5011840;28;20772;-72
2023/09/04 09:42:25;;;;;;;4.57;3.13;;;;;;;;;;5016654;28;20605;-72
2023/09/04 09:44:52;;;;;;;3.60;2.75;;;;;;;;;;5021616;28;20209;-73
2023/09/04 09:47:18;;;;;;;4.80;3.10;;;;;;;;;;5038951;28;20249;-73
2023/09/04 09:49:45;;;;;;;3.97;2.60;;;;;;;;;;5039004;28;20194;-73
2023/09/04 09:52:11;;;;;;;4.43;2.60;;;;;;;;;;5036199;28;20507;-72
2023/09/04 09:54:42;;;;;;;6.10;2.90;;;;;;;;;;5021845;28;20233;-72
2023/09/04 09:57:12;;;;;;;4.68;2.55;;;;;;;;;;5039773;28;20194;-73
2023/09/04 09:59:41;;;;;;;3.38;2.53;;;;;;;;;;5027202;28;20217;-73
2023/09/04 10:02:07;;;;;;;5.63;3.28;;;;;;;;;;5030531;28;20198;-73
2023/09/04 10:04:34;;;;;;;5.05;2.65;;;;;;;;;;5016773;28;20906;-73
2023/09/04 10:07:01;;;;;;;4.85;2.42;;;;;;;;;;5045281;28;20646;-73
2023/09/04 10:09:28;;;;;;;4.80;2.95;;;;;;;;;;5030857;28;20206;-72
2023/09/04 10:12:03;;;;;;;4.65;2.85;;;;;;;;;;5047075;28;20220;-73
2023/09/04 10:14:38;;;;;;;2.85;2.50;;;;;;;;;;5023428;28;20198;-73
2023/09/04 10:17:08;;;;;;;3.85;2.80;;;;;;;;;;5022294;28;20229;-73
2023/09/04 10:19:40;;;;;;;5.00;2.50;;;;;;;;;;5018544;28;20190;-72
2023/09/04 10:22:15;;;;;;;4.45;2.58;;;;;;;;;;5028488;28;20190;-72
2023/09/04 10:24:51;;;;;;;3.00;2.10;;;;;;;;;;5018836;28;20272;-73
2023/09/04 10:27:19;;;;;;;3.17;2.50;;;;;;;;;;5011522;28;20182;-73
2023/09/04 10:29:47;;;;;;;3.72;2.58;;;;;;;;;;4663691;28;10000122;-73
2023/09/04 10:32:13;;;;;;;3.75;2.47;;;;;;;;;;5016830;28;20324;-73
2023/09/04 10:34:40;;;;;;;4.25;3.00;;;;;;;;;;5022502;28;20262;-72
2023/09/04 10:37:09;;;;;;;4.45;2.97;;;;;;;;;;5041739;28;20643;-73
2023/09/04 10:39:35;;;;;;;7.03;2.92;;;;;;;;;;5039246;28;20186;-73
2023/09/04 10:42:00;;;;;;;4.40;2.50;;;;;;;;;;5022767;28;20532;-73
2023/09/04 10:44:46;;;;;;;3.70;2.40;;;;;;;;;;5035099;28;20235;-73
2023/09/04 10:47:12;;;;;;;2.40;2.20;;;;;;;;;;5024911;28;20844;-73
2023/09/04 10:49:37;;;;;;;2.78;2.30;;;;;;;;;;5023140;28;20214;-73
2023/09/04 10:52:03;;;;;;;3.25;2.40;;;;;;;;;;5024670;28;20232;-74
2023/09/04 10:54:29;;;;;;;4.85;3.05;;;;;;;;;;5025056;28;20209;-73
2023/09/04 10:56:59;;;;;;;3.90;2.50;;;;;;;;;;5017704;28;20206;-74
2023/09/04 10:59:26;;;;;;;2.90;2.17;;;;;;;;;;5026371;28;20229;-74
2023/09/04 11:01:51;;;;;;;3.00;2.28;;;;;;;;;;5021760;28;20317;-74
2023/09/04 11:04:31;;;;;;;2.50;2.20;;;;;;;;;;5020146;28;20377;-73
2023/09/04 11:07:32;;;;;;;3.05;2.20;;;;;;;;;;5013581;28;20181;-73
2023/09/04 11:10:27;;;;;;;5.30;2.35;;;;;;;;;;5012776;28;20205;-74
2023/09/04 11:12:52;;;;;;;5.82;1.95;;;;;;;;;;5017133;28;20221;-74
2023/09/04 11:15:18;;;;;;;3.67;2.33;;;;;;;;;;5034748;28;20252;-74
2023/09/04 11:17:46;;;;;;;4.28;2.40;;;;;;;;;;5024341;28;20654;-74
2023/09/04 11:20:14;;;;;;;3.13;1.90;;;;;;;;;;5033633;28;20281;-73
2023/09/04 11:22:45;;;;;;;2.50;1.80;;;;;;;;;;5014492;28;20191;-73
2023/09/04 11:25:10;;;;;;;2.15;1.85;;;;;;;;;;5013327;28;20271;-74
2023/09/04 11:27:36;;;;;;;3.45;2.00;;;;;;;;;;5016253;28;20574;-74
2023/09/04 11:30:02;;;;;;;3.47;1.83;;;;;;;;;;5009166;28;20198;-73
2023/09/04 11:32:28;;;;;;;4.38;2.13;;;;;;;;;;5030825;28;20649;-73
2023/09/04 11:34:54;;;;;;;2.30;2.00;;;;;;;;;;5009662;28;20280;-72
2023/09/04 11:37:20;;;;;;;2.42;1.80;;;;;;;;;;5023566;28;20229;-73
2023/09/04 11:39:55;;;;;;;3.95;1.55;;;;;;;;;;5016102;28;20798;-73
2023/09/04 11:42:22;;;;;;;4.72;1.88;;;;;;;;;;5018076;28;20205;-74
2023/09/04 11:44:48;;;;;;;2.40;1.80;;;;;;;;;;5021011;28;20272;-73
2023/09/04 11:47:14;;;;;;;2.20;1.42;;;;;;;;;;5018151;28;20223;-73
2023/09/04 11:49:40;;;;;;;2.42;1.98;;;;;;;;;;5019761;28;20224;-73
2023/09/04 11:52:07;;;;;;;2.47;1.70;;;;;;;;;;5025326;28;20708;-73
2023/09/04 11:54:35;;;;;;;2.08;1.80;;;;;;;;;;5041075;28;20306;-73
2023/09/04 11:57:02;;;;;;;2.92;1.50;;;;;;;;;;5013946;28;20244;-73
2023/09/04 11:59:31;;;;;;;2.80;1.88;;;;;;;;;;5013056;28;20249;-74
2023/09/04 12:01:56;;;;;;;2.28;1.52;;;;;;;;;;5015162;28;20537;-74
2023/09/04 12:04:22;;;;;;;3.00;1.85;;;;;;;;;;5023008;28;20218;-74
2023/09/04 12:06:47;;;;;;;2.15;1.80;;;;;;;;;;5016940;28;20263;-74
2023/09/04 12:09:13;;;;;;;2.72;1.70;;;;;;;;;;5017545;28;20197;-73
2023/09/04 12:11:38;;;;;;;2.22;1.50;;;;;;;;;;5012891;28;20191;-74
2023/09/04 12:14:10;;;;;;;2.40;1.65;;;;;;;;;;5026943;28;20194;-73
2023/09/04 12:16:36;;;;;;;1.73;1.63;;;;;;;;;;5015024;28;20190;-73
2023/09/04 12:19:01;;;;;;;1.67;1.40;;;;;;;;;;5017497;28;20221;-73
2023/09/04 12:21:26;;;;;;;2.55;1.20;;;;;;;;;;5028257;28;20225;-72
2023/09/04 12:23:54;;;;;;;2.45;1.50;;;;;;;;;;5019654;28;20215;-72
2023/09/04 12:26:19;;;;;;;1.60;1.38;;;;;;;;;;5014328;28;20568;-74
2023/09/04 12:28:45;;;;;;;2.38;1.48;;;;;;;;;;5023476;28;20281;-73
2023/09/04 12:31:12;;;;;;;2.53;1.35;;;;;;;;;;5020896;28;20191;-73
2023/09/04 12:33:39;;;;;;;2.63;1.50;;;;;;;;;;5024374;28;20224;-73
2023/09/04 12:36:10;;;;;;;1.42;1.15;;;;;;;;;;5018278;28;20190;-73
2023/09/04 12:38:39;;;;;;;2.58;1.38;;;;;;;;;;5028394;28;20645;-73
2023/09/04 12:41:05;;;;;;;2.17;1.10;;;;;;;;;;5021296;28;20223;-73
2023/09/04 12:43:31;;;;;;;1.60;1.30;;;;;;;;;;5020281;28;20302;-74
2023/09/04 12:45:56;;;;;;;2.08;1.40;;;;;;;;;;5028221;28;20557;-73
2023/09/04 12:48:23;;;;;;;1.15;1.05;;;;;;;;;;5026313;28;20196;-73
2023/09/04 12:50:49;;;;;;;2.65;1.40;;;;;;;;;;5021790;28;20190;-73
2023/09/04 12:53:15;;;;;;;1.02;0.93;;;;;;;;;;5019216;28;20178;-73
2023/09/04 12:55:40;;;;;;;1.80;1.38;;;;;;;;;;5038297;28;20626;-73
2023/09/04 12:58:10;;;;;;;1.60;1.50;;;;;;;;;;5012268;28;20768;-73
2023/09/04 13:00:37;;;;;;;1.60;1.23;;;;;;;;;;5020709;28;20588;-72
2023/09/04 13:03:03;;;;;;;1.23;1.10;;;;;;;;;;5034079;28;20190;-73
2023/09/04 13:05:28;;;;;;;2.38;1.50;;;;;;;;;;5011737;28;20260;-73
2023/09/04 13:07:54;;;;;;;3.40;1.30;;;;;;;;;;5012695;28;20195;-73
2023/09/04 13:10:19;;;;;;;1.70;1.30;;;;;;;;;;5024374;28;20645;-73
2023/09/04 13:12:45;;;;;;;3.22;1.50;;;;;;;;;;5008485;28;20645;-73
2023/09/04 13:15:11;;;;;;;2.72;1.45;;;;;;;;;;5016068;28;20209;-72
2023/09/04 13:17:41;;;;;;;1.75;1.20;;;;;;;;;;5005816;28;20257;-72
2023/09/04 13:20:08;;;;;;;2.17;1.80;;;;;;;;;;5025773;28;20264;-74
2023/09/04 13:22:33;;;;;;;3.83;1.45;;;;;;;;;;5018994;28;20218;-73
2023/09/04 13:24:59;;;;;;;3.72;1.33;;;;;;;;;;5038338;28;20215;-73
2023/09/04 13:27:24;;;;;;;2.78;1.60;;;;;;;;;;5027682;28;20638;-73
2023/09/04 13:29:49;;;;;;;1.88;1.20;;;;;;;;;;5021750;28;20373;-73
2023/09/04 13:32:15;;;;;;;2.65;1.35;;;;;;;;;;5009976;28;20227;-73
2023/09/04 13:34:40;;;;;;;1.20;1.10;;;;;;;;;;5020241;28;20190;-73
2023/09/04 13:37:07;;;;;;;1.52;1.30;;;;;;;;;;5027724;28;20200;-74
2023/09/04 13:39:32;;;;;;;2.25;1.40;;;;;;;;;;5030174;28;20515;-73
2023/09/04 13:41:58;;;;;;;2.03;1.10;;;;;;;;;;5026042;28;20193;-73
2023/09/04 13:44:25;;;;;;;1.52;1.17;;;;;;;;;;5019000;28;20229;-73
2023/09/04 13:46:51;;;;;;;3.45;1.40;;;;;;;;;;5023176;28;20205;-73
2023/09/04 13:49:16;;;;;;;1.40;1.30;;;;;;;;;;5010903;28;20655;-73
2023/09/04 13:51:41;;;;;;;1.45;1.23;;;;;;;;;;5025931;28;20194;-73
2023/09/04 13:54:10;;;;;;;3.28;1.50;;;;;;;;;;5025664;28;20614;-73
2023/09/04 13:56:36;;;;;;;1.40;1.27;;;;;;;;;;5017334;28;20673;-74
2023/09/04 13:59:02;;;;;;;3.17;1.50;;;;;;;;;;5019282;28;20228;-74
2023/09/04 14:01:27;;;;;;;1.60;1.30;;;;;;;;;;5025589;28;20582;-74
2023/09/04 14:03:52;;;;;;;1.90;1.30;;;;;;;;;;5031799;28;20297;-74
2023/09/04 14:06:18;;;;;;;1.60;1.40;;;;;;;;;;5035614;28;20190;-74
2023/09/04 14:08:43;;;;;;;1.52;1.10;;;;;;;;;;5013339;28;20206;-73
2023/09/04 14:11:09;;;;;;;1.33;1.20;;;;;;;;;;5025371;28;20558;-74
2023/09/04 14:13:34;;;;;;;4.22;1.42;;;;;;;;;;5039861;28;20191;-73
2023/09/04 14:15:59;;;;;;;1.35;1.25;;;;;;;;;;5020821;28;20194;-74
2023/09/04 14:18:25;;;;;;;1.55;1.30;;;;;;;;;;5042433;28;20213;-73
2023/09/04 14:20:50;;;;;;;2.17;1.50;;;;;;;;;;5045113;28;20727;-75
2023/09/04 14:23:16;;;;;;;1.92;1.30;;;;;;;;;;5022083;28;20271;-75
2023/09/04 14:25:48;;;;;;;1.55;1.40;;;;;;;;;;5018634;28;20186;-74
2023/09/04 14:28:14;;;;;;;1.63;1.45;;;;;;;;;;5026973;28;20223;-74